createdAt,value
2019-02-15T00:01:48.354Z,-2.30
2019-02-15T00:04:17.465Z,-2.30
2019-02-15T00:06:45.352Z,-2.30
2019-02-15T00:09:13.305Z,-2.30
2019-02-15T00:11:41.205Z,-2.40
2019-02-15T00:14:09.340Z,-2.40
2019-02-15T00:16:37.236Z,-2.40
2019-02-15T00:19:36.362Z,-2.50
2019-02-15T00:22:04.434Z,-2.50
2019-02-15T00:24:32.398Z,-2.50
2019-02-15T00:27:00.375Z,-2.60
2019-02-15T00:29:28.237Z,-2.50
2019-02-15T00:31:56.353Z,-2.50
2019-02-15T00:34:24.324Z,-2.60
2019-02-15T00:36:52.188Z,-2.60
2019-02-15T00:39:20.075Z,-2.60
2019-02-15T00:41:48.224Z,-2.60
2019-02-15T00:44:16.113Z,-2.60
2019-02-15T00:46:57.130Z,-2.70
2019-02-15T00:49:50.036Z,-2.70
2019-02-15T00:52:30.982Z,-2.70
2019-02-15T00:55:14.269Z,-2.70
2019-02-15T00:57:50.532Z,-2.70
2019-02-15T01:00:36.700Z,-2.70
2019-02-15T01:03:17.704Z,-2.70
2019-02-15T01:06:01.529Z,-2.70
2019-02-15T01:08:47.030Z,-2.80
2019-02-15T01:11:19.780Z,-2.80
2019-02-15T01:13:47.644Z,-2.80
2019-02-15T01:16:15.798Z,-2.80
2019-02-15T01:18:43.756Z,-2.80
2019-02-15T01:21:11.896Z,-2.80
2019-02-15T01:23:39.789Z,-2.80
2019-02-15T01:26:22.680Z,-2.80
2019-02-15T01:29:10.896Z,-2.80
2019-02-15T01:32:13.240Z,-2.80
2019-02-15T01:35:03.392Z,-2.80
2019-02-15T01:37:56.557Z,-2.90
2019-02-15T01:40:44.010Z,-2.90
2019-02-15T01:43:40.166Z,-3.00
2019-02-15T01:46:13.756Z,-3.00
2019-02-15T01:48:41.655Z,-3.00
2019-02-15T01:51:09.795Z,-3.00
2019-02-15T01:53:37.672Z,-3.10
2019-02-15T01:56:05.787Z,-3.00
2019-02-15T01:58:33.686Z,-3.00
2019-02-15T02:01:01.628Z,-3.00
2019-02-15T02:03:29.605Z,-3.10
2019-02-15T02:05:57.696Z,-3.10
2019-02-15T02:08:28.117Z,-3.10
2019-02-15T02:10:55.988Z,-3.10
2019-02-15T02:13:24.208Z,-3.20
2019-02-15T02:15:52.105Z,-3.20
2019-02-15T02:18:20.291Z,-3.20
2019-02-15T02:20:48.199Z,-3.20
2019-02-15T02:23:16.176Z,-3.20
2019-02-15T02:25:44.225Z,-3.20
2019-02-15T02:28:12.085Z,-3.20
2019-02-15T02:30:39.973Z,-3.20
2019-02-15T02:33:08.111Z,-3.20
2019-02-15T02:35:36.012Z,-3.10
2019-02-15T02:38:03.994Z,-3.10
2019-02-15T02:40:31.868Z,-3.20
2019-02-15T02:42:59.767Z,-3.20
2019-02-15T02:45:27.677Z,-3.20
2019-02-15T02:47:55.580Z,-3.20
2019-02-15T02:50:23.505Z,-3.20
2019-02-15T02:52:51.411Z,-3.30
2019-02-15T02:55:19.525Z,-3.30
2019-02-15T02:57:47.631Z,-3.30
2019-02-15T03:00:16.262Z,-3.30
2019-02-15T03:02:44.157Z,-3.40
2019-02-15T03:05:12.207Z,-3.40
2019-02-15T03:07:40.118Z,-3.40
2019-02-15T03:10:08.310Z,-3.40
2019-02-15T03:12:36.179Z,-3.40
2019-02-15T03:15:04.494Z,-3.50
2019-02-15T03:17:32.374Z,-3.50
2019-02-15T03:20:00.683Z,-3.50
2019-02-15T03:22:28.826Z,-3.50
2019-02-15T03:24:56.826Z,-3.60
2019-02-15T03:27:24.990Z,-3.60
2019-02-15T03:29:52.842Z,-3.50
2019-02-15T03:32:20.729Z,-3.50
2019-02-15T03:34:48.692Z,-3.50
2019-02-15T03:37:44.806Z,-3.50
2019-02-15T03:40:17.490Z,-3.60
2019-02-15T03:42:45.413Z,-3.60
2019-02-15T03:45:15.019Z,-3.60
2019-02-15T03:47:42.932Z,-3.60
2019-02-15T03:50:11.141Z,-3.60
2019-02-15T03:52:39.088Z,-3.60
2019-02-15T03:55:07.440Z,-3.60
2019-02-15T03:57:35.889Z,-3.60
2019-02-15T04:00:04.629Z,-3.70
2019-02-15T04:02:32.593Z,-3.70
2019-02-15T04:05:00.755Z,-3.70
2019-02-15T04:07:28.875Z,-3.70
2019-02-15T04:09:56.823Z,-3.70
2019-02-15T04:12:24.980Z,-3.70
2019-02-15T04:14:52.848Z,-3.70
2019-02-15T04:17:20.725Z,-3.70
2019-02-15T04:19:48.664Z,-3.70
2019-02-15T04:22:17.000Z,-3.60
2019-02-15T04:24:45.049Z,-3.70
2019-02-15T04:27:12.936Z,-3.70
2019-02-15T04:29:40.841Z,-3.70
2019-02-15T04:32:08.960Z,-3.60
2019-02-15T04:34:36.829Z,-3.70
2019-02-15T04:37:04.721Z,-3.70
2019-02-15T04:39:32.882Z,-3.80
2019-02-15T04:42:00.820Z,-3.80
2019-02-15T04:44:28.956Z,-3.80
2019-02-15T04:46:57.342Z,-3.80
2019-02-15T04:49:25.242Z,-3.80
2019-02-15T04:51:53.355Z,-3.80
2019-02-15T04:54:21.247Z,-3.80
2019-02-15T04:56:49.141Z,-3.80
2019-02-15T04:59:17.005Z,-3.80
2019-02-15T05:01:44.928Z,-3.80
2019-02-15T05:04:12.830Z,-3.80
2019-02-15T05:06:40.913Z,-3.80
2019-02-15T05:09:08.788Z,-3.80
2019-02-15T05:11:36.653Z,-3.80
2019-02-15T05:14:04.533Z,-3.80
2019-02-15T05:16:32.443Z,-3.80
2019-02-15T05:19:00.345Z,-3.80
2019-02-15T05:21:28.449Z,-3.70
2019-02-15T05:23:56.404Z,-3.70
2019-02-15T05:26:24.281Z,-3.70
2019-02-15T05:28:52.137Z,-3.70
2019-02-15T05:31:20.024Z,-3.70
2019-02-15T05:33:47.909Z,-3.70
2019-02-15T05:36:15.796Z,-3.70
2019-02-15T05:38:43.885Z,-3.80
2019-02-15T05:41:11.838Z,-3.80
2019-02-15T05:43:39.705Z,-3.80
2019-02-15T05:46:07.696Z,-3.90
2019-02-15T05:48:35.893Z,-3.90
2019-02-15T05:51:03.759Z,-4.00
2019-02-15T05:53:31.646Z,-4.00
2019-02-15T05:55:59.532Z,-4.00
2019-02-15T05:58:27.405Z,-4.00
2019-02-15T06:00:55.559Z,-4.10
2019-02-15T06:03:23.444Z,-4.10
2019-02-15T06:05:51.313Z,-4.10
2019-02-15T06:08:19.271Z,-4.20
2019-02-15T06:10:47.354Z,-4.20
2019-02-15T06:13:15.229Z,-4.30
2019-02-15T06:15:43.123Z,-4.30
2019-02-15T06:18:11.012Z,-4.30
2019-02-15T06:20:38.878Z,-4.20
2019-02-15T06:23:06.763Z,-4.20
2019-02-15T06:25:35.129Z,-4.20
2019-02-15T06:28:03.009Z,-4.20
2019-02-15T06:30:30.881Z,-4.20
2019-02-15T06:32:58.916Z,-4.30
2019-02-15T06:35:26.903Z,-4.30
2019-02-15T06:37:54.983Z,-4.30
2019-02-15T06:40:22.844Z,-4.30
2019-02-15T06:42:50.765Z,-4.30
2019-02-15T06:45:25.014Z,-4.30
2019-02-15T06:47:48.900Z,-4.20
2019-02-15T06:50:16.931Z,-4.20
2019-02-15T06:52:44.812Z,-4.20
2019-02-15T06:55:12.940Z,-4.20
2019-02-15T06:57:41.053Z,-4.10
2019-02-15T07:00:27.334Z,-4.00
2019-02-15T07:03:03.238Z,-4.00
2019-02-15T07:05:31.133Z,-4.00
2019-02-15T07:07:59.508Z,-3.90
2019-02-15T07:10:27.717Z,-3.90
2019-02-15T07:12:55.602Z,-3.80
2019-02-15T07:15:23.576Z,-3.70
2019-02-15T07:17:51.452Z,-3.50
2019-02-15T07:20:19.330Z,-3.40
2019-02-15T07:22:48.056Z,-3.30
2019-02-15T07:25:15.956Z,-3.20
2019-02-15T07:27:43.836Z,-3.10
2019-02-15T07:30:11.941Z,-3.00
2019-02-15T07:32:39.811Z,-2.90
2019-02-15T07:35:07.785Z,-2.80
2019-02-15T07:37:35.736Z,-2.70
2019-02-15T07:40:04.225Z,-2.50
2019-02-15T07:42:32.104Z,-2.40
2019-02-15T07:44:59.973Z,-2.30
2019-02-15T07:47:28.104Z,-2.00
2019-02-15T07:49:56.000Z,-1.50
2019-02-15T07:52:24.064Z,-1.00
2019-02-15T07:54:52.299Z,-0.50
2019-02-15T07:57:20.202Z,-0.20
2019-02-15T07:59:48.084Z,-0.10
2019-02-15T08:02:16.056Z,0.00
2019-02-15T08:04:43.943Z,0.10
2019-02-15T08:07:11.812Z,0.10
2019-02-15T08:09:39.812Z,0.30
2019-02-15T08:12:08.165Z,0.40
2019-02-15T08:14:36.020Z,0.60
2019-02-15T08:17:04.011Z,0.70
2019-02-15T08:19:32.118Z,1.00
2019-02-15T08:22:00.449Z,1.20
2019-02-15T08:24:28.582Z,1.40
2019-02-15T08:26:56.701Z,1.60
2019-02-15T08:29:24.564Z,1.80
2019-02-15T08:31:52.433Z,2.00
2019-02-15T08:34:20.298Z,2.20
2019-02-15T08:36:48.188Z,2.40
2019-02-15T08:39:16.065Z,2.70
2019-02-15T08:42:00.260Z,2.90
2019-02-15T08:44:13.788Z,3.10
2019-02-15T08:46:41.922Z,3.40
2019-02-15T08:49:09.788Z,3.70
2019-02-15T08:51:37.891Z,3.90
2019-02-15T08:54:06.004Z,4.00
2019-02-15T08:56:33.884Z,4.20
2019-02-15T08:59:02.113Z,4.40
2019-02-15T09:01:30.009Z,4.70
2019-02-15T09:03:57.901Z,5.00
2019-02-15T09:06:26.113Z,5.20
2019-02-15T09:08:54.073Z,5.50
2019-02-15T09:11:22.021Z,5.50
2019-02-15T09:13:49.900Z,5.70
2019-02-15T09:16:17.789Z,5.90
2019-02-15T09:18:45.894Z,6.10
2019-02-15T09:21:13.772Z,6.40
2019-02-15T09:23:41.649Z,6.60
2019-02-15T09:26:17.831Z,6.70
2019-02-15T09:28:43.241Z,7.00
2019-02-15T09:31:11.102Z,7.10
2019-02-15T09:33:38.987Z,7.30
2019-02-15T09:36:07.000Z,7.50
2019-02-15T09:38:34.865Z,7.70
2019-02-15T09:41:02.990Z,7.80
2019-02-15T09:43:30.934Z,8.10
2019-02-15T09:45:58.823Z,8.30
2019-02-15T09:48:26.713Z,8.50
2019-02-15T09:50:54.621Z,8.70
2019-02-15T09:53:22.557Z,8.80
2019-02-15T09:55:50.529Z,9.00
2019-02-15T09:58:18.672Z,9.20
2019-02-15T10:00:46.600Z,9.40
2019-02-15T10:03:14.473Z,9.50
2019-02-15T10:05:42.337Z,9.70
2019-02-15T10:08:10.260Z,10.00
2019-02-15T10:10:38.213Z,10.20
2019-02-15T10:13:06.084Z,10.40
2019-02-15T10:15:34.117Z,10.60
2019-02-15T10:18:01.994Z,10.80
2019-02-15T10:20:30.449Z,11.00
2019-02-15T10:22:58.592Z,11.10
2019-02-15T10:25:26.493Z,11.40
2019-02-15T10:27:54.615Z,11.60
2019-02-15T10:30:22.495Z,11.70
2019-02-15T10:32:50.623Z,11.90
2019-02-15T10:35:18.865Z,12.10
2019-02-15T10:37:46.801Z,12.20
2019-02-15T10:40:14.936Z,12.40
2019-02-15T10:42:42.806Z,12.40
2019-02-15T10:45:11.340Z,12.60
2019-02-15T10:47:39.328Z,12.70
2019-02-15T10:50:07.793Z,12.80
2019-02-15T10:52:35.659Z,12.90
2019-02-15T10:55:03.723Z,13.20
2019-02-15T10:57:31.601Z,13.40
2019-02-15T10:59:59.980Z,13.40
2019-02-15T11:02:27.849Z,13.50
2019-02-15T11:04:55.731Z,13.70
2019-02-15T11:07:23.600Z,13.90
2019-02-15T11:09:51.469Z,13.90
2019-02-15T11:12:19.356Z,14.00
2019-02-15T11:14:47.288Z,14.30
2019-02-15T11:17:15.257Z,14.70
2019-02-15T11:19:43.150Z,14.90
2019-02-15T11:22:11.045Z,15.20
2019-02-15T11:24:38.965Z,15.40
2019-02-15T11:27:07.091Z,15.60
2019-02-15T11:29:35.268Z,15.70
2019-02-15T11:32:03.654Z,15.70
2019-02-15T11:34:31.628Z,15.90
2019-02-15T11:36:59.769Z,16.00
2019-02-15T11:39:27.653Z,16.10
2019-02-15T11:41:55.562Z,16.20
2019-02-15T11:44:23.428Z,16.40
2019-02-15T11:46:56.714Z,16.60
2019-02-15T11:49:20.915Z,16.70
2019-02-15T11:51:48.779Z,16.90
2019-02-15T11:54:23.354Z,16.80
2019-02-15T11:56:46.592Z,16.70
2019-02-15T11:59:14.504Z,16.70
2019-02-15T12:01:42.399Z,16.60
2019-02-15T12:04:10.619Z,16.50
2019-02-15T12:06:38.871Z,16.50
2019-02-15T12:09:06.897Z,16.40
2019-02-15T12:11:34.766Z,16.40
2019-02-15T12:14:02.703Z,16.30
2019-02-15T12:16:30.625Z,16.50
2019-02-15T12:18:58.499Z,16.60
2019-02-15T12:21:26.391Z,16.80
2019-02-15T12:23:54.265Z,17.30
2019-02-15T12:26:22.152Z,17.60
2019-02-15T12:28:50.023Z,18.10
2019-02-15T12:31:18.005Z,18.40
2019-02-15T12:33:45.884Z,18.80
2019-02-15T12:36:13.758Z,19.30
2019-02-15T12:38:41.640Z,19.50
2019-02-15T12:41:10.111Z,19.80
2019-02-15T12:43:38.000Z,19.80
2019-02-15T12:46:05.881Z,19.80
2019-02-15T12:48:34.038Z,19.90
2019-02-15T12:51:01.987Z,19.90
2019-02-15T12:53:30.101Z,19.80
2019-02-15T12:55:58.310Z,19.90
2019-02-15T12:58:26.499Z,20.20
2019-02-15T13:00:55.077Z,20.20
2019-02-15T13:03:23.282Z,20.10
2019-02-15T13:05:51.188Z,20.30
2019-02-15T13:08:19.072Z,20.40
2019-02-15T13:10:47.034Z,20.40
2019-02-15T13:13:15.093Z,20.20
2019-02-15T13:15:44.094Z,20.20
2019-02-15T13:18:12.602Z,20.00
2019-02-15T13:20:40.741Z,19.60
2019-02-15T13:23:08.779Z,19.50
2019-02-15T13:25:37.224Z,19.20
2019-02-15T13:28:05.232Z,19.10
2019-02-15T13:30:33.225Z,18.80
2019-02-15T13:33:01.111Z,18.60
2019-02-15T13:35:29.056Z,18.40
2019-02-15T13:37:57.215Z,18.20
2019-02-15T13:40:25.329Z,18.10
2019-02-15T13:42:53.570Z,17.90
2019-02-15T13:45:21.482Z,17.70
2019-02-15T13:47:49.422Z,17.60
2019-02-15T13:50:19.100Z,17.50
2019-02-15T13:52:47.231Z,17.50
2019-02-15T13:55:17.823Z,17.40
2019-02-15T13:57:45.809Z,17.50
2019-02-15T14:00:14.716Z,17.40
2019-02-15T14:02:46.006Z,17.30
2019-02-15T14:05:13.888Z,17.30
2019-02-15T14:07:42.311Z,17.20
2019-02-15T14:10:13.015Z,17.10
2019-02-15T14:12:40.903Z,17.20
2019-02-15T14:15:09.037Z,17.00
2019-02-15T14:17:44.279Z,16.90
2019-02-15T14:20:07.351Z,16.80
2019-02-15T14:22:38.304Z,16.70
2019-02-15T14:25:06.804Z,16.60
2019-02-15T14:27:34.900Z,16.60
2019-02-15T14:30:03.252Z,16.60
2019-02-15T14:32:31.390Z,16.60
2019-02-15T14:34:59.570Z,16.50
2019-02-15T14:37:28.121Z,16.50
2019-02-15T14:39:57.852Z,16.50
2019-02-15T14:42:25.877Z,16.50
2019-02-15T14:44:55.001Z,16.50
2019-02-15T14:47:23.226Z,16.40
2019-02-15T14:49:51.550Z,16.40
2019-02-15T14:52:19.424Z,16.30
2019-02-15T14:54:47.345Z,16.20
2019-02-15T14:57:15.473Z,16.20
2019-02-15T14:59:43.429Z,16.10
2019-02-15T15:02:11.373Z,16.00
2019-02-15T15:04:41.306Z,15.80
2019-02-15T15:07:12.248Z,15.80
2019-02-15T15:09:40.153Z,15.60
2019-02-15T15:12:08.033Z,15.50
2019-02-15T15:14:37.480Z,15.40
2019-02-15T15:17:05.674Z,15.10
2019-02-15T15:19:33.589Z,14.90
2019-02-15T15:22:01.718Z,14.80
2019-02-15T15:24:29.683Z,14.60
2019-02-15T15:26:57.545Z,14.40
2019-02-15T15:29:25.580Z,14.20
2019-02-15T15:31:53.452Z,13.90
2019-02-15T15:34:21.376Z,13.60
2019-02-15T15:36:49.672Z,13.40
2019-02-15T15:39:18.195Z,13.20
2019-02-15T15:41:46.064Z,12.90
2019-02-15T15:44:13.995Z,12.60
2019-02-15T15:46:41.947Z,12.50
2019-02-15T15:49:10.262Z,12.20
2019-02-15T15:51:38.149Z,12.10
2019-02-15T15:54:06.122Z,11.90
2019-02-15T15:56:34.082Z,11.70
2019-02-15T15:59:02.029Z,11.50
2019-02-15T16:01:29.895Z,11.50
2019-02-15T16:03:58.089Z,11.40
2019-02-15T16:06:25.968Z,11.30
2019-02-15T16:08:54.436Z,11.20
2019-02-15T16:11:22.428Z,11.00
2019-02-15T16:13:50.297Z,10.70
2019-02-15T16:16:18.335Z,10.50
2019-02-15T16:18:46.300Z,10.30
2019-02-15T16:21:14.271Z,10.10
2019-02-15T16:23:42.137Z,9.90
2019-02-15T16:26:10.128Z,9.80
2019-02-15T16:28:37.996Z,9.70
2019-02-15T16:31:05.935Z,9.70
2019-02-15T16:33:33.804Z,9.50
2019-02-15T16:36:01.830Z,9.40
2019-02-15T16:38:29.704Z,9.30
2019-02-15T16:40:57.681Z,9.10
2019-02-15T16:43:25.544Z,8.90
2019-02-15T16:45:53.597Z,8.80
2019-02-15T16:48:21.476Z,8.60
2019-02-15T16:50:49.453Z,8.50
2019-02-15T16:53:17.456Z,8.40
2019-02-15T16:55:45.450Z,8.40
2019-02-15T16:58:13.364Z,8.20
2019-02-15T17:00:41.344Z,7.90
2019-02-15T17:03:09.212Z,7.60
2019-02-15T17:05:37.568Z,7.40
2019-02-15T17:08:05.505Z,7.10
2019-02-15T17:10:33.535Z,7.00
2019-02-15T17:13:01.384Z,6.80
2019-02-15T17:15:29.363Z,6.60
2019-02-15T17:17:58.060Z,6.50
2019-02-15T17:20:26.068Z,6.40
2019-02-15T17:22:54.020Z,6.30
2019-02-15T17:25:22.049Z,6.20
2019-02-15T17:27:50.288Z,6.20
2019-02-15T17:30:18.151Z,6.10
2019-02-15T17:32:46.059Z,6.00
2019-02-15T17:35:13.922Z,5.80
2019-02-15T17:37:41.881Z,5.60
2019-02-15T17:40:10.088Z,5.50
2019-02-15T17:42:37.957Z,5.30
2019-02-15T17:45:06.019Z,5.20
2019-02-15T17:47:33.919Z,5.10
2019-02-15T17:50:01.881Z,5.00
2019-02-15T17:52:29.786Z,4.90
2019-02-15T17:54:57.890Z,4.70
2019-02-15T17:57:25.802Z,4.70
2019-02-15T17:59:53.669Z,4.60
2019-02-15T18:02:21.586Z,4.50
2019-02-15T18:04:49.572Z,4.50
2019-02-15T18:07:17.498Z,4.50
2019-02-15T18:09:45.397Z,4.40
2019-02-15T18:12:13.288Z,4.50
2019-02-15T18:14:41.276Z,4.40
2019-02-15T18:17:09.243Z,4.30
2019-02-15T18:19:37.401Z,4.20
2019-02-15T18:22:05.352Z,4.10
2019-02-15T18:24:33.473Z,4.00
2019-02-15T18:27:01.394Z,3.90
2019-02-15T18:29:29.318Z,3.80
2019-02-15T18:31:57.359Z,3.70
2019-02-15T18:34:25.301Z,3.60
2019-02-15T18:36:53.417Z,3.50
2019-02-15T18:39:21.428Z,3.30
2019-02-15T18:41:49.520Z,3.30
2019-02-15T18:44:17.421Z,3.30
2019-02-15T18:46:45.555Z,3.30
2019-02-15T18:49:19.482Z,3.40
2019-02-15T18:51:43.054Z,3.30
2019-02-15T18:54:11.143Z,3.30
2019-02-15T18:56:39.053Z,3.20
2019-02-15T18:59:07.102Z,3.10
2019-02-15T19:01:35.333Z,3.10
2019-02-15T19:04:03.316Z,3.00
2019-02-15T19:06:31.202Z,2.90
2019-02-15T19:08:59.083Z,2.90
2019-02-15T19:11:27.084Z,2.80
2019-02-15T19:13:55.478Z,2.80
2019-02-15T19:16:23.327Z,2.70
2019-02-15T19:18:51.188Z,2.60
2019-02-15T19:21:19.096Z,2.60
2019-02-15T19:23:46.968Z,2.50
2019-02-15T19:26:14.856Z,2.40
2019-02-15T19:28:42.729Z,2.40
2019-02-15T19:31:10.806Z,2.30
2019-02-15T19:33:39.068Z,2.20
2019-02-15T19:36:07.289Z,2.10
2019-02-15T19:38:35.409Z,2.00
2019-02-15T19:41:03.417Z,2.00
2019-02-15T19:43:31.336Z,1.90
2019-02-15T19:45:59.596Z,1.90
2019-02-15T19:48:27.576Z,1.80
2019-02-15T19:50:55.759Z,1.80
2019-02-15T19:53:23.871Z,1.70
2019-02-15T19:55:52.027Z,1.60
2019-02-15T19:58:19.939Z,1.50
2019-02-15T20:00:47.853Z,1.50
2019-02-15T20:03:16.171Z,1.40
2019-02-15T20:05:44.073Z,1.30
2019-02-15T20:08:12.476Z,1.20
2019-02-15T20:10:41.123Z,1.10
2019-02-15T20:13:09.253Z,1.00
2019-02-15T20:15:37.223Z,1.00
2019-02-15T20:18:05.128Z,0.90
2019-02-15T20:20:33.495Z,0.90
2019-02-15T20:23:01.393Z,0.80
2019-02-15T20:25:29.571Z,0.80
2019-02-15T20:27:57.728Z,0.80
2019-02-15T20:30:25.672Z,0.70
2019-02-15T20:32:53.756Z,0.60
2019-02-15T20:35:21.673Z,0.50
2019-02-15T20:37:49.584Z,0.50
2019-02-15T20:40:17.556Z,0.40
2019-02-15T20:42:45.479Z,0.40
2019-02-15T20:45:16.855Z,0.30
2019-02-15T20:47:45.062Z,0.20
2019-02-15T20:50:13.060Z,0.20
2019-02-15T20:52:40.938Z,0.10
2019-02-15T20:55:09.626Z,0.10
2019-02-15T20:57:37.528Z,0.00
2019-02-15T21:00:06.797Z,0.00
2019-02-15T21:02:34.786Z,0.00
2019-02-15T21:05:03.260Z,0.00
2019-02-15T21:07:31.394Z,-0.10
2019-02-15T21:09:59.539Z,-0.10
2019-02-15T21:12:27.465Z,-0.20
2019-02-15T21:14:55.420Z,-0.10
2019-02-15T21:17:23.356Z,-0.10
2019-02-15T21:19:51.262Z,-0.20
2019-02-15T21:22:19.175Z,-0.30
2019-02-15T21:24:47.191Z,-0.30
2019-02-15T21:27:15.085Z,-0.30
2019-02-15T21:29:42.944Z,-0.40
2019-02-15T21:32:10.898Z,-0.40
2019-02-15T21:34:38.797Z,-0.50
2019-02-15T21:37:06.668Z,-0.50
2019-02-15T21:39:34.587Z,-0.50
2019-02-15T21:42:02.626Z,-0.60
2019-02-15T21:44:30.600Z,-0.60
2019-02-15T21:46:58.728Z,-0.70
2019-02-15T21:49:26.759Z,-0.80
2019-02-15T21:51:54.716Z,-0.80
2019-02-15T21:54:22.616Z,-0.80
2019-02-15T21:56:50.726Z,-0.80
2019-02-15T21:59:18.603Z,-0.80
2019-02-15T22:01:46.736Z,-0.80
2019-02-15T22:04:14.638Z,-0.90
2019-02-15T22:06:42.828Z,-0.90
2019-02-15T22:09:10.765Z,-0.90
2019-02-15T22:11:38.690Z,-1.00
2019-02-15T22:14:06.667Z,-1.00
2019-02-15T22:16:34.524Z,-1.10
2019-02-15T22:19:02.422Z,-1.10
2019-02-15T22:21:30.559Z,-1.10
2019-02-15T22:23:58.507Z,-1.20
2019-02-15T22:26:26.701Z,-1.20
2019-02-15T22:28:54.575Z,-1.20
2019-02-15T22:31:22.446Z,-1.30
2019-02-15T22:33:50.348Z,-1.30
2019-02-15T22:36:18.460Z,-1.40
2019-02-15T22:38:46.340Z,-1.40
2019-02-15T22:41:15.201Z,-1.50
2019-02-15T22:43:43.276Z,-1.50
2019-02-15T22:46:11.399Z,-1.50
2019-02-15T22:48:39.324Z,-1.50
2019-02-15T22:51:07.232Z,-1.60
2019-02-15T22:53:35.327Z,-1.60
2019-02-15T22:56:03.200Z,-1.60
2019-02-15T22:58:31.241Z,-1.60
2019-02-15T23:01:03.712Z,-1.60
2019-02-15T23:03:31.612Z,-1.60
2019-02-15T23:05:59.905Z,-1.70
2019-02-15T23:08:27.868Z,-1.70
2019-02-15T23:10:55.823Z,-1.80
2019-02-15T23:13:23.838Z,-1.80
2019-02-15T23:15:51.683Z,-1.80
2019-02-15T23:18:19.839Z,-1.80
2019-02-15T23:20:47.710Z,-1.90
2019-02-15T23:23:15.823Z,-1.90
2019-02-15T23:25:44.003Z,-1.90
2019-02-15T23:28:12.123Z,-1.90
2019-02-15T23:30:40.000Z,-1.90
2019-02-15T23:33:07.901Z,-1.90
2019-02-15T23:35:36.050Z,-1.90
2019-02-15T23:38:03.923Z,-1.90
2019-02-15T23:40:31.896Z,-1.90
2019-02-15T23:42:59.824Z,-1.90
2019-02-15T23:45:27.737Z,-2.00
2019-02-15T23:47:55.841Z,-2.00
2019-02-15T23:50:23.741Z,-2.00
2019-02-15T23:52:51.638Z,-2.00
2019-02-15T23:55:19.509Z,-2.10
2019-02-15T23:57:47.667Z,-2.10
